createdAt,value
2018-09-06T00:02:03.266Z,63.57
2018-09-06T00:04:31.721Z,66.77
2018-09-06T00:07:00.228Z,60.77
2018-09-06T00:09:28.716Z,61.63
2018-09-06T00:11:57.179Z,65.13
2018-09-06T00:14:25.767Z,63.53
2018-09-06T00:16:54.191Z,65.20
2018-09-06T00:19:22.885Z,63.27
2018-09-06T00:21:51.438Z,66.60
2018-09-06T00:24:19.858Z,66.73
2018-09-06T00:26:49.531Z,63.23
2018-09-06T00:29:17.985Z,64.27
2018-09-06T00:31:46.558Z,61.67
2018-09-06T00:34:15.047Z,67.63
2018-09-06T00:36:44.560Z,62.00
2018-09-06T00:39:13.020Z,68.53
2018-09-06T00:41:41.476Z,63.73
2018-09-06T00:44:09.961Z,65.70
2018-09-06T00:46:39.132Z,70.63
2018-09-06T00:49:07.546Z,67.57
2018-09-06T00:51:36.036Z,64.47
2018-09-06T00:54:05.621Z,68.13
2018-09-06T00:56:34.156Z,65.47
2018-09-06T00:59:02.629Z,58.87
2018-09-06T01:01:31.111Z,67.03
2018-09-06T01:03:59.663Z,61.37
2018-09-06T01:06:28.277Z,61.00
2018-09-06T01:08:56.830Z,60.03
2018-09-06T01:11:25.302Z,58.30
2018-09-06T01:13:53.814Z,54.40
2018-09-06T01:16:22.372Z,57.63
2018-09-06T01:18:50.854Z,56.87
2018-09-06T01:21:19.324Z,62.00
2018-09-06T01:23:47.750Z,60.33
2018-09-06T01:26:16.213Z,56.13
2018-09-06T01:28:44.771Z,58.60
2018-09-06T01:31:13.215Z,58.20
2018-09-06T01:33:41.662Z,60.10
2018-09-06T01:36:15.730Z,60.10
2018-09-06T01:38:44.170Z,53.43
2018-09-06T01:41:13.018Z,54.80
2018-09-06T01:43:41.529Z,56.77
2018-09-06T01:46:09.949Z,60.67
2018-09-06T01:48:38.359Z,60.00
2018-09-06T01:51:06.853Z,60.17
2018-09-06T01:53:35.845Z,56.47
2018-09-06T01:56:04.306Z,57.73
2018-09-06T01:58:32.718Z,56.67
2018-09-06T02:01:01.316Z,56.77
2018-09-06T02:03:29.754Z,60.07
2018-09-06T02:05:58.177Z,58.63
2018-09-06T02:08:26.696Z,52.83
2018-09-06T02:10:55.176Z,46.90
2018-09-06T02:13:23.611Z,50.90
2018-09-06T02:15:52.070Z,51.70
2018-09-06T02:18:20.511Z,46.63
2018-09-06T02:20:48.955Z,45.17
2018-09-06T02:23:17.458Z,46.13
2018-09-06T02:25:45.914Z,41.47
2018-09-06T02:28:14.537Z,46.03
2018-09-06T02:30:42.985Z,43.97
2018-09-06T02:33:11.599Z,43.27
2018-09-06T02:35:40.284Z,42.00
2018-09-06T02:38:08.860Z,43.67
2018-09-06T02:40:38.306Z,43.43
2018-09-06T02:43:08.679Z,42.77
2018-09-06T02:45:37.098Z,41.33
2018-09-06T02:48:05.613Z,39.80
2018-09-06T02:50:39.599Z,41.37
2018-09-06T02:53:08.109Z,33.73
2018-09-06T02:55:36.644Z,40.20
2018-09-06T02:58:05.510Z,37.47
2018-09-06T03:00:35.298Z,37.80
2018-09-06T03:03:03.903Z,38.93
2018-09-06T03:05:32.404Z,39.03
2018-09-06T03:08:01.427Z,40.00
2018-09-06T03:10:34.582Z,36.70
2018-09-06T03:13:03.014Z,34.43
2018-09-06T03:15:31.556Z,34.67
2018-09-06T03:18:00.220Z,32.23
2018-09-06T03:20:28.689Z,32.77
2018-09-06T03:22:57.180Z,32.37
2018-09-06T03:25:25.619Z,29.43
2018-09-06T03:27:54.140Z,31.77
2018-09-06T03:30:22.632Z,35.87
2018-09-06T03:32:51.293Z,30.03
2018-09-06T03:35:19.855Z,32.07
2018-09-06T03:37:48.375Z,32.37
2018-09-06T03:40:16.886Z,32.37
2018-09-06T03:42:45.614Z,30.10
2018-09-06T03:45:14.206Z,29.83
2018-09-06T03:47:42.678Z,28.97
2018-09-06T03:50:11.251Z,32.27
2018-09-06T03:52:39.804Z,28.10
2018-09-06T03:55:08.392Z,29.83
2018-09-06T03:57:36.876Z,29.00
2018-09-06T04:00:05.362Z,30.20
2018-09-06T04:02:33.846Z,26.57
2018-09-06T04:05:02.272Z,30.53
2018-09-06T04:07:30.832Z,28.27
2018-09-06T04:09:59.295Z,28.77
2018-09-06T04:12:27.893Z,29.73
2018-09-06T04:14:56.315Z,27.23
2018-09-06T04:17:24.751Z,29.03
2018-09-06T04:19:53.492Z,26.73
2018-09-06T04:22:21.923Z,29.20
2018-09-06T04:24:50.366Z,24.07
2018-09-06T04:27:18.894Z,26.13
2018-09-06T04:29:47.371Z,29.73
2018-09-06T04:32:15.898Z,30.83
2018-09-06T04:34:44.356Z,30.03
2018-09-06T04:37:12.824Z,25.47
2018-09-06T04:39:41.268Z,30.83
2018-09-06T04:42:09.907Z,30.80
2018-09-06T04:44:38.541Z,32.80
2018-09-06T04:47:07.021Z,33.63
2018-09-06T04:49:35.495Z,31.87
2018-09-06T04:52:04.286Z,31.10
2018-09-06T04:54:33.041Z,28.17
2018-09-06T04:57:01.554Z,30.27
2018-09-06T04:59:29.999Z,33.10
2018-09-06T05:01:58.554Z,26.80
2018-09-06T05:04:27.066Z,27.70
2018-09-06T05:06:55.611Z,28.60
2018-09-06T05:09:24.188Z,31.23
2018-09-06T05:11:52.635Z,29.00
2018-09-06T05:14:21.093Z,30.50
2018-09-06T05:16:49.604Z,32.97
2018-09-06T05:19:18.047Z,25.53
2018-09-06T05:21:46.501Z,27.20
2018-09-06T05:24:14.920Z,28.63
2018-09-06T05:26:43.359Z,29.23
2018-09-06T05:29:11.800Z,29.13
2018-09-06T05:31:40.212Z,26.80
2018-09-06T05:34:08.642Z,25.87
2018-09-06T05:36:37.331Z,27.60
2018-09-06T05:39:08.786Z,26.90
2018-09-06T05:41:37.418Z,28.67
2018-09-06T05:44:06.110Z,27.20
2018-09-06T05:46:34.568Z,24.57
2018-09-06T05:49:03.033Z,24.13
2018-09-06T05:51:31.483Z,27.80
2018-09-06T05:53:59.992Z,27.13
2018-09-06T05:56:28.475Z,25.47
2018-09-06T05:58:56.932Z,24.10
2018-09-06T06:01:25.378Z,24.57
2018-09-06T06:03:53.892Z,23.97
2018-09-06T06:06:22.446Z,29.03
2018-09-06T06:08:51.274Z,28.57
2018-09-06T06:11:20.680Z,27.57
2018-09-06T06:13:49.170Z,26.17
2018-09-06T06:16:17.722Z,28.57
2018-09-06T06:18:46.323Z,26.77
2018-09-06T06:21:14.990Z,40.47
2018-09-06T06:23:43.413Z,27.63
2018-09-06T06:26:11.936Z,32.93
2018-09-06T06:28:40.541Z,33.87
2018-09-06T06:31:08.975Z,34.60
2018-09-06T06:33:37.521Z,39.50
2018-09-06T06:36:06.219Z,34.87
2018-09-06T06:38:35.691Z,33.30
2018-09-06T06:41:04.120Z,33.97
2018-09-06T06:43:32.715Z,37.30
2018-09-06T06:46:01.161Z,35.90
2018-09-06T06:48:29.628Z,35.90
2018-09-06T06:50:58.076Z,33.23
2018-09-06T06:53:26.572Z,31.50
2018-09-06T06:55:55.076Z,35.53
2018-09-06T06:58:23.504Z,35.00
2018-09-06T07:00:51.971Z,34.97
2018-09-06T07:03:20.613Z,35.23
2018-09-06T07:05:49.062Z,29.53
2018-09-06T07:08:17.529Z,27.97
2018-09-06T07:10:46.008Z,35.60
2018-09-06T07:13:14.534Z,33.47
2018-09-06T07:15:43.079Z,36.17
2018-09-06T07:18:11.592Z,29.57
2018-09-06T07:20:40.248Z,29.37
2018-09-06T07:23:08.728Z,28.50
2018-09-06T07:25:37.165Z,29.67
2018-09-06T07:28:05.759Z,26.60
2018-09-06T07:30:34.448Z,28.43
2018-09-06T07:33:03.024Z,31.40
2018-09-06T07:35:31.507Z,29.23
2018-09-06T07:38:00.001Z,26.93
2018-09-06T07:40:28.435Z,26.67
2018-09-06T07:42:56.944Z,25.20
2018-09-06T07:45:25.406Z,26.50
2018-09-06T07:47:53.842Z,25.43
2018-09-06T07:50:22.276Z,22.60
2018-09-06T07:52:50.684Z,29.70
2018-09-06T07:55:19.140Z,21.47
2018-09-06T07:57:47.836Z,21.47
2018-09-06T08:00:16.338Z,19.47
2018-09-06T08:02:44.918Z,19.73
2018-09-06T08:05:13.496Z,17.97
2018-09-06T08:07:41.972Z,18.70
2018-09-06T08:10:10.416Z,21.57
2018-09-06T08:12:38.925Z,19.93
2018-09-06T08:15:07.519Z,17.47
2018-09-06T08:17:36.109Z,18.10
2018-09-06T08:20:04.659Z,18.17
2018-09-06T08:22:33.526Z,20.73
2018-09-06T08:25:02.082Z,18.53
2018-09-06T08:27:31.101Z,17.20
2018-09-06T08:29:59.501Z,18.87
2018-09-06T08:32:28.035Z,17.57
2018-09-06T08:34:56.575Z,17.43
2018-09-06T08:37:25.588Z,19.23
2018-09-06T08:39:54.090Z,16.53
2018-09-06T08:42:22.576Z,19.73
2018-09-06T08:44:51.006Z,16.17
2018-09-06T08:47:19.548Z,16.57
2018-09-06T08:49:48.306Z,15.03
2018-09-06T08:52:17.179Z,18.73
2018-09-06T08:54:45.660Z,20.87
2018-09-06T08:57:14.131Z,18.83
2018-09-06T08:59:42.683Z,18.70
2018-09-06T09:02:12.233Z,19.70
2018-09-06T09:04:40.980Z,16.03
2018-09-06T09:07:09.557Z,19.23
2018-09-06T09:09:38.032Z,17.37
2018-09-06T09:12:06.497Z,17.90
2018-09-06T09:14:35.411Z,17.83
2018-09-06T09:17:04.023Z,17.30
2018-09-06T09:19:32.729Z,16.30
2018-09-06T09:22:01.256Z,14.40
2018-09-06T09:24:29.912Z,15.80
2018-09-06T09:26:58.395Z,19.50
2018-09-06T09:29:27.032Z,16.10
2018-09-06T09:31:55.760Z,15.13
2018-09-06T09:34:24.188Z,17.97
2018-09-06T09:36:52.668Z,16.77
2018-09-06T09:39:21.102Z,13.83
2018-09-06T09:41:49.570Z,13.50
2018-09-06T09:44:18.099Z,15.87
2018-09-06T09:49:14.319Z,14.27
2018-09-06T09:51:42.840Z,17.87
2018-09-06T09:54:11.295Z,13.57
2018-09-06T09:56:39.707Z,14.77
2018-09-06T09:59:08.207Z,14.27
2018-09-06T10:01:42.601Z,19.43
2018-09-06T10:04:16.616Z,17.73
2018-09-06T10:06:50.303Z,16.03
2018-09-06T10:09:25.495Z,15.13
2018-09-06T10:11:53.919Z,14.87
2018-09-06T10:14:22.675Z,14.73
2018-09-06T10:16:51.329Z,14.33
2018-09-06T10:19:19.807Z,15.13
2018-09-06T10:21:48.260Z,15.17
2018-09-06T10:24:16.694Z,14.60
2018-09-06T10:26:45.129Z,14.63
2018-09-06T10:29:13.600Z,13.97
2018-09-06T10:31:42.064Z,15.07
2018-09-06T10:34:10.647Z,14.37
2018-09-06T10:36:39.085Z,15.87
2018-09-06T10:39:09.023Z,15.00
2018-09-06T10:41:37.725Z,17.43
2018-09-06T10:44:06.243Z,14.47
2018-09-06T10:46:34.799Z,16.90
2018-09-06T10:49:03.275Z,15.70
2018-09-06T10:51:31.777Z,14.40
2018-09-06T10:54:00.203Z,13.60
2018-09-06T10:56:29.626Z,13.80
2018-09-06T10:58:58.403Z,14.30
2018-09-06T11:01:26.845Z,15.10
2018-09-06T11:03:56.616Z,15.20
2018-09-06T11:06:25.338Z,14.20
2018-09-06T11:08:53.854Z,13.37
2018-09-06T11:11:22.303Z,14.37
2018-09-06T11:13:50.741Z,13.90
2018-09-06T11:16:19.586Z,13.47
2018-09-06T11:18:48.126Z,13.60
2018-09-06T11:21:16.666Z,17.80
2018-09-06T11:23:45.190Z,15.93
2018-09-06T11:26:14.075Z,13.70
2018-09-06T11:28:42.547Z,15.80
2018-09-06T11:31:10.983Z,12.73
2018-09-06T11:33:39.613Z,13.63
2018-09-06T11:36:08.063Z,12.33
2018-09-06T11:38:36.718Z,13.77
2018-09-06T11:41:05.260Z,12.80
2018-09-06T11:43:33.734Z,12.83
2018-09-06T11:46:02.220Z,12.07
2018-09-06T11:48:30.826Z,12.83
2018-09-06T11:50:59.288Z,11.73
2018-09-06T11:53:27.712Z,12.27
2018-09-06T11:55:56.233Z,13.47
2018-09-06T11:58:24.671Z,13.60
2018-09-06T12:00:53.171Z,12.17
2018-09-06T12:03:21.716Z,14.90
2018-09-06T12:05:50.157Z,12.93
2018-09-06T12:08:18.575Z,13.03
2018-09-06T12:10:47.086Z,11.33
2018-09-06T12:13:15.581Z,12.70
2018-09-06T12:15:44.172Z,11.27
2018-09-06T12:18:12.842Z,12.07
2018-09-06T12:20:41.345Z,11.83
2018-09-06T12:23:10.306Z,12.10
2018-09-06T12:25:38.807Z,11.50
2018-09-06T12:28:07.373Z,11.87
2018-09-06T12:30:35.843Z,12.00
2018-09-06T12:33:04.887Z,13.35
2018-09-06T12:35:33.916Z,12.53
2018-09-06T12:38:02.559Z,10.90
2018-09-06T12:40:31.573Z,11.43
2018-09-06T12:43:00.599Z,11.63
2018-09-06T12:45:29.593Z,10.20
2018-09-06T12:47:58.597Z,9.53
2018-09-06T12:50:27.566Z,13.25
2018-09-06T12:52:56.599Z,12.10
2018-09-06T12:55:25.579Z,10.55
2018-09-06T12:57:54.557Z,10.72
2018-09-06T13:00:23.695Z,10.05
2018-09-06T13:02:52.925Z,10.90
2018-09-06T13:05:22.047Z,11.00
2018-09-06T13:07:51.038Z,10.85
2018-09-06T13:10:20.090Z,12.55
2018-09-06T13:12:49.033Z,10.00
2018-09-06T13:15:18.301Z,11.03
2018-09-06T13:17:47.280Z,10.30
2018-09-06T13:20:16.430Z,9.98
2018-09-06T13:22:45.420Z,12.50
2018-09-06T13:25:14.836Z,10.15
2018-09-06T13:27:43.793Z,9.63
2018-09-06T13:30:12.908Z,10.45
2018-09-06T13:32:41.903Z,10.30
2018-09-06T13:35:10.985Z,11.88
2018-09-06T13:37:40.007Z,10.58
2018-09-06T13:40:09.075Z,12.45
2018-09-06T13:42:38.025Z,10.65
2018-09-06T13:45:07.171Z,10.80
2018-09-06T13:47:36.161Z,11.25
2018-09-06T13:50:05.180Z,10.90
2018-09-06T13:52:34.170Z,12.80
2018-09-06T13:55:03.179Z,10.23
2018-09-06T13:57:32.133Z,10.82
2018-09-06T14:00:01.325Z,16.02
2018-09-06T14:02:30.437Z,12.10
2018-09-06T14:04:59.489Z,12.75
2018-09-06T14:07:28.710Z,17.42
2018-09-06T14:09:57.856Z,16.32
2018-09-06T14:12:26.852Z,12.45
2018-09-06T14:14:55.942Z,12.25
2018-09-06T14:17:24.944Z,15.18
2018-09-06T14:19:53.992Z,13.93
2018-09-06T14:22:22.982Z,15.43
2018-09-06T14:24:52.044Z,13.85
2018-09-06T14:27:21.061Z,18.17
2018-09-06T14:29:50.071Z,14.55
2018-09-06T14:32:19.071Z,17.67
2018-09-06T14:34:48.094Z,21.27
2018-09-06T14:37:17.119Z,12.05
2018-09-06T14:39:46.103Z,12.18
2018-09-06T14:42:15.106Z,11.78
2018-09-06T14:44:44.108Z,10.50
2018-09-06T14:47:13.125Z,13.08
2018-09-06T14:49:42.159Z,11.25
2018-09-06T14:52:11.243Z,12.55
2018-09-06T14:54:42.219Z,10.70
2018-09-06T14:57:11.745Z,10.60
2018-09-06T14:59:40.712Z,14.75
2018-09-06T15:02:09.749Z,14.75
2018-09-06T15:04:39.517Z,12.98
2018-09-06T15:07:08.586Z,10.58
2018-09-06T15:09:37.625Z,10.53
2018-09-06T15:12:06.608Z,10.80
2018-09-06T15:14:35.974Z,79.03
2018-09-06T15:17:05.066Z,17.65
2018-09-06T15:19:34.104Z,13.88
2018-09-06T15:22:03.097Z,11.83
2018-09-06T15:24:32.145Z,11.18
2018-09-06T15:27:01.146Z,11.28
2018-09-06T15:29:30.181Z,11.35
2018-09-06T15:31:59.216Z,11.78
2018-09-06T15:34:28.366Z,10.75
2018-09-06T15:36:57.632Z,24.45
2018-09-06T15:39:26.703Z,11.97
2018-09-06T15:41:56.513Z,13.55
2018-09-06T15:44:25.528Z,11.50
2018-09-06T15:46:54.547Z,11.20
2018-09-06T15:49:23.615Z,10.40
2018-09-06T15:51:52.980Z,10.48
2018-09-06T15:54:21.999Z,10.98
2018-09-06T15:56:51.012Z,11.30
2018-09-06T15:59:19.991Z,10.65
2018-09-06T16:01:49.037Z,10.88
2018-09-06T16:04:18.240Z,11.35
2018-09-06T16:06:47.261Z,10.28
2018-09-06T16:09:16.743Z,11.85
2018-09-06T16:11:45.819Z,18.48
2018-09-06T16:14:14.807Z,17.75
2018-09-06T16:16:43.803Z,25.92
2018-09-06T16:19:12.859Z,12.43
2018-09-06T16:21:41.912Z,11.30
2018-09-06T16:24:10.926Z,12.23
2018-09-06T16:26:40.086Z,10.10
2018-09-06T16:29:09.100Z,10.20
2018-09-06T16:31:38.132Z,12.13
2018-09-06T16:34:07.309Z,9.98
2018-09-06T16:36:36.347Z,10.08
2018-09-06T16:39:07.274Z,9.83
2018-09-06T16:41:36.328Z,11.00
2018-09-06T16:44:04.815Z,12.93
2018-09-06T16:46:33.442Z,11.27
2018-09-06T16:49:02.590Z,12.90
2018-09-06T16:51:31.718Z,17.12
2018-09-06T16:54:00.162Z,31.42
2018-09-06T16:56:29.266Z,15.23
2018-09-06T16:58:58.358Z,14.50
2018-09-06T17:01:26.822Z,15.43
2018-09-06T17:03:55.317Z,12.10
2018-09-06T17:06:23.791Z,11.80
2018-09-06T17:08:52.815Z,12.30
2018-09-06T17:11:21.867Z,13.28
2018-09-06T17:13:50.336Z,19.30
2018-09-06T17:16:18.739Z,28.77
2018-09-06T17:18:47.340Z,15.27
2018-09-06T17:21:15.783Z,16.57
2018-09-06T17:23:44.250Z,12.93
2018-09-06T17:26:13.434Z,12.13
2018-09-06T17:28:42.072Z,11.73
2018-09-06T17:31:10.488Z,14.20
2018-09-06T17:33:38.967Z,10.63
2018-09-06T17:36:07.401Z,10.47
2018-09-06T17:38:36.150Z,14.07
2018-09-06T17:41:05.031Z,13.53
2018-09-06T17:43:33.459Z,12.30
2018-09-06T17:46:01.899Z,25.00
2018-09-06T17:48:30.360Z,41.17
2018-09-06T17:50:58.774Z,15.50
2018-09-06T17:53:27.264Z,16.43
2018-09-06T17:55:55.690Z,13.27
2018-09-06T17:58:24.168Z,13.47
2018-09-06T18:01:26.184Z,12.97
2018-09-06T18:03:54.876Z,13.57
2018-09-06T18:06:23.318Z,12.47
2018-09-06T18:08:51.834Z,13.40
2018-09-06T18:11:20.233Z,18.37
2018-09-06T18:13:48.689Z,15.20
2018-09-06T18:16:17.316Z,12.23
2018-09-06T18:18:45.765Z,12.50
2018-09-06T18:21:14.231Z,14.70
2018-09-06T18:23:42.731Z,13.93
2018-09-06T18:26:11.425Z,11.17
2018-09-06T18:28:39.888Z,14.03
2018-09-06T18:31:08.328Z,18.53
2018-09-06T18:33:36.977Z,17.13
2018-09-06T18:36:05.682Z,14.83
2018-09-06T18:38:34.282Z,13.93
2018-09-06T18:41:02.794Z,12.17
2018-09-06T18:43:31.789Z,15.20
2018-09-06T18:46:00.422Z,12.67
2018-09-06T18:48:29.006Z,27.20
2018-09-06T18:50:57.565Z,26.23
2018-09-06T18:53:26.093Z,13.97
2018-09-06T18:55:54.701Z,20.70
2018-09-06T18:58:23.337Z,16.73
2018-09-06T19:00:51.847Z,17.07
2018-09-06T19:03:20.386Z,17.90
2018-09-06T19:05:48.959Z,14.87
2018-09-06T19:08:17.542Z,13.77
2018-09-06T19:10:46.124Z,13.47
2018-09-06T19:13:14.720Z,10.53
2018-09-06T19:15:43.260Z,11.73
2018-09-06T19:18:11.876Z,10.93
2018-09-06T19:20:40.495Z,11.00
2018-09-06T19:23:08.994Z,14.00
2018-09-06T19:25:37.524Z,13.10
2018-09-06T19:28:06.129Z,11.37
2018-09-06T19:30:34.625Z,11.33
2018-09-06T19:33:03.145Z,12.90
2018-09-06T19:35:31.652Z,13.70
2018-09-06T19:38:00.147Z,11.57
2018-09-06T19:40:28.854Z,10.80
2018-09-06T19:42:57.411Z,11.23
2018-09-06T19:45:25.942Z,10.80
2018-09-06T19:47:54.794Z,10.93
2018-09-06T19:50:30.102Z,13.00
2018-09-06T19:52:59.567Z,10.30
2018-09-06T19:55:28.216Z,10.67
2018-09-06T19:57:56.870Z,10.80
2018-09-06T20:00:25.373Z,10.33
2018-09-06T20:02:53.851Z,10.57
2018-09-06T20:05:22.463Z,11.33
2018-09-06T20:07:51.200Z,11.87
2018-09-06T20:10:19.772Z,12.30
2018-09-06T20:12:48.842Z,11.77
2018-09-06T20:15:17.586Z,11.10
2018-09-06T20:17:46.214Z,11.33
2018-09-06T20:20:14.909Z,10.03
2018-09-06T20:22:43.433Z,10.83
2018-09-06T20:25:12.043Z,8.83
2018-09-06T20:27:40.609Z,7.97
2018-09-06T20:30:09.111Z,9.67
2018-09-06T20:32:37.719Z,9.90
2018-09-06T20:35:06.490Z,8.67
2018-09-06T20:37:35.182Z,11.33
2018-09-06T20:40:03.878Z,10.43
2018-09-06T20:42:32.559Z,9.70
2018-09-06T20:45:00.974Z,10.37
2018-09-06T20:47:29.445Z,10.23
2018-09-06T20:49:57.868Z,8.13
2018-09-06T20:52:26.366Z,7.23
2018-09-06T20:54:54.838Z,7.10
2018-09-06T20:57:23.367Z,9.30
2018-09-06T20:59:51.773Z,7.67
2018-09-06T21:02:24.088Z,8.20
2018-09-06T21:04:53.431Z,6.63
2018-09-06T21:07:22.548Z,5.87
2018-09-06T21:09:51.711Z,6.43
2018-09-06T21:12:20.230Z,6.83
2018-09-06T21:14:48.657Z,6.33
2018-09-06T21:17:17.200Z,7.07
2018-09-06T21:19:45.603Z,4.93
2018-09-06T21:22:14.203Z,4.63
2018-09-06T21:24:42.914Z,6.43
2018-09-06T21:27:11.457Z,6.63
2018-09-06T21:29:39.991Z,6.13
2018-09-06T21:32:08.506Z,4.43
2018-09-06T21:34:37.551Z,6.63
2018-09-06T21:37:06.410Z,5.50
2018-09-06T21:39:34.842Z,4.63
2018-09-06T21:42:03.426Z,7.10
2018-09-06T21:44:31.949Z,5.30
2018-09-06T21:47:00.542Z,3.80
2018-09-06T21:49:29.514Z,3.57
2018-09-06T21:51:58.352Z,5.83
2018-09-06T21:54:26.885Z,7.20
2018-09-06T21:56:55.379Z,3.93
2018-09-06T21:59:23.873Z,5.23
2018-09-06T22:01:52.363Z,5.43
2018-09-06T22:04:20.868Z,5.73
2018-09-06T22:06:49.552Z,4.33
2018-09-06T22:09:18.289Z,4.97
2018-09-06T22:11:47.006Z,6.40
2018-09-06T22:14:16.360Z,4.53
2018-09-06T22:16:45.140Z,4.87
2018-09-06T22:19:15.785Z,6.33
2018-09-06T22:21:44.379Z,5.73
2018-09-06T22:24:12.993Z,5.37
2018-09-06T22:26:41.735Z,7.93
2018-09-06T22:29:10.806Z,6.13
2018-09-06T22:31:39.663Z,6.53
2018-09-06T22:34:08.751Z,7.53
2018-09-06T22:36:37.768Z,6.47
2018-09-06T22:39:08.563Z,7.47
2018-09-06T22:41:37.421Z,7.43
2018-09-06T22:44:07.259Z,6.27
2018-09-06T22:46:35.702Z,8.80
2018-09-06T22:49:04.203Z,7.47
2018-09-06T22:51:32.886Z,7.90
2018-09-06T22:54:01.303Z,9.17
2018-09-06T22:56:29.779Z,9.77
2018-09-06T22:58:58.226Z,6.87
2018-09-06T23:01:26.666Z,8.13
2018-09-06T23:03:55.150Z,8.47
2018-09-06T23:06:23.680Z,9.67
2018-09-06T23:08:52.152Z,7.93
2018-09-06T23:11:20.636Z,7.77
2018-09-06T23:13:49.359Z,9.40
2018-09-06T23:16:18.111Z,7.97
2018-09-06T23:18:46.603Z,7.13
2018-09-06T23:21:15.376Z,5.63
2018-09-06T23:23:43.847Z,4.83
2018-09-06T23:26:12.301Z,4.60
2018-09-06T23:28:40.740Z,4.97
2018-09-06T23:31:09.281Z,6.57
2018-09-06T23:33:37.783Z,5.57
2018-09-06T23:36:06.326Z,4.57
2018-09-06T23:38:34.826Z,5.67
2018-09-06T23:41:03.270Z,4.73
2018-09-06T23:43:31.721Z,4.47
2018-09-06T23:46:00.172Z,4.40
2018-09-06T23:48:29.942Z,4.43
2018-09-06T23:50:58.790Z,3.53
2018-09-06T23:53:28.048Z,3.97
2018-09-06T23:55:56.445Z,3.70
2018-09-06T23:58:25.123Z,3.13
